sensor_id;sensor_type;location;lat;lon;timestamp;P1;durP1;ratioP1;P2;durP2;ratioP2
49061;SDS011;34873;49.142;9.118;2022-10-31T00:00:55;3.70;;;1.98;;
49061;SDS011;34873;49.142;9.118;2022-10-31T00:03:23;1.90;;;1.70;;
49061;SDS011;34873;49.142;9.118;2022-10-31T00:05:53;3.10;;;2.30;;
49061;SDS011;34873;49.142;9.118;2022-10-31T00:08:21;2.10;;;1.80;;
49061;SDS011;34873;49.142;9.118;2022-10-31T00:10:46;2.33;;;1.92;;
49061;SDS011;34873;49.142;9.118;2022-10-31T00:13:12;4.53;;;2.40;;
49061;SDS011;34873;49.142;9.118;2022-10-31T00:15:38;2.47;;;2.10;;
49061;SDS011;34873;49.142;9.118;2022-10-31T00:18:07;3.53;;;2.13;;
49061;SDS011;34873;49.142;9.118;2022-10-31T00:20:35;4.05;;;2.22;;
49061;SDS011;34873;49.142;9.118;2022-10-31T00:23:02;3.85;;;2.58;;
49061;SDS011;34873;49.142;9.118;2022-10-31T00:25:33;2.33;;;1.70;;
49061;SDS011;34873;49.142;9.118;2022-10-31T00:28:00;2.20;;;1.60;;
49061;SDS011;34873;49.142;9.118;2022-10-31T00:30:28;2.88;;;1.80;;
49061;SDS011;34873;49.142;9.118;2022-10-31T00:32:54;3.10;;;1.95;;
49061;SDS011;34873;49.142;9.118;2022-10-31T00:35:19;2.45;;;2.10;;
49061;SDS011;34873;49.142;9.118;2022-10-31T00:37:47;3.10;;;2.40;;
49061;SDS011;34873;49.142;9.118;2022-10-31T00:40:15;2.65;;;1.83;;
49061;SDS011;34873;49.142;9.118;2022-10-31T00:42:41;2.92;;;2.00;;
49061;SDS011;34873;49.142;9.118;2022-10-31T00:45:09;2.13;;;1.70;;
49061;SDS011;34873;49.142;9.118;2022-10-31T00:47:35;2.42;;;1.55;;
49061;SDS011;34873;49.142;9.118;2022-10-31T00:50:00;2.65;;;2.42;;
49061;SDS011;34873;49.142;9.118;2022-10-31T00:52:31;2.90;;;1.73;;
49061;SDS011;34873;49.142;9.118;2022-10-31T00:54:56;1.92;;;1.60;;
49061;SDS011;34873;49.142;9.118;2022-10-31T00:57:22;3.38;;;1.77;;
49061;SDS011;34873;49.142;9.118;2022-10-31T00:59:47;2.97;;;2.20;;
49061;SDS011;34873;49.142;9.118;2022-10-31T01:02:13;2.00;;;1.80;;
49061;SDS011;34873;49.142;9.118;2022-10-31T01:04:39;5.50;;;2.20;;
49061;SDS011;34873;49.142;9.118;2022-10-31T01:07:04;3.13;;;2.15;;
49061;SDS011;34873;49.142;9.118;2022-10-31T01:09:30;2.60;;;1.98;;
49061;SDS011;34873;49.142;9.118;2022-10-31T01:12:00;4.03;;;1.90;;
49061;SDS011;34873;49.142;9.118;2022-10-31T01:14:25;2.33;;;1.77;;
49061;SDS011;34873;49.142;9.118;2022-10-31T01:16:51;2.38;;;1.88;;
49061;SDS011;34873;49.142;9.118;2022-10-31T01:19:19;2.20;;;1.50;;
49061;SDS011;34873;49.142;9.118;2022-10-31T01:21:45;2.90;;;2.25;;
49061;SDS011;34873;49.142;9.118;2022-10-31T01:24:13;2.15;;;1.95;;
49061;SDS011;34873;49.142;9.118;2022-10-31T01:26:38;2.78;;;2.00;;
49061;SDS011;34873;49.142;9.118;2022-10-31T01:29:07;3.67;;;2.25;;
49061;SDS011;34873;49.142;9.118;2022-10-31T01:31:35;3.20;;;1.90;;
49061;SDS011;34873;49.142;9.118;2022-10-31T01:34:04;2.13;;;1.90;;
49061;SDS011;34873;49.142;9.118;2022-10-31T01:36:33;2.00;;;1.58;;
49061;SDS011;34873;49.142;9.118;2022-10-31T01:39:04;3.17;;;1.63;;
49061;SDS011;34873;49.142;9.118;2022-10-31T01:41:36;2.25;;;1.77;;
49061;SDS011;34873;49.142;9.118;2022-10-31T01:52:24;2.75;;;1.70;;
49061;SDS011;34873;49.142;9.118;2022-10-31T01:54:53;3.67;;;1.85;;
49061;SDS011;34873;49.142;9.118;2022-10-31T01:57:22;2.60;;;1.95;;
49061;SDS011;34873;49.142;9.118;2022-10-31T01:59:52;4.28;;;2.00;;
49061;SDS011;34873;49.142;9.118;2022-10-31T02:02:22;4.07;;;1.80;;
49061;SDS011;34873;49.142;9.118;2022-10-31T02:04:48;2.95;;;1.80;;
49061;SDS011;34873;49.142;9.118;2022-10-31T02:07:18;2.67;;;1.80;;
49061;SDS011;34873;49.142;9.118;2022-10-31T02:09:49;2.53;;;1.90;;
49061;SDS011;34873;49.142;9.118;2022-10-31T02:12:18;2.00;;;1.70;;
49061;SDS011;34873;49.142;9.118;2022-10-31T02:14:46;3.60;;;1.90;;
49061;SDS011;34873;49.142;9.118;2022-10-31T02:17:11;3.22;;;1.70;;
49061;SDS011;34873;49.142;9.118;2022-10-31T02:22:54;2.60;;;1.98;;
49061;SDS011;34873;49.142;9.118;2022-10-31T02:33:57;2.47;;;1.92;;
49061;SDS011;34873;49.142;9.118;2022-10-31T02:36:30;2.13;;;1.92;;
49061;SDS011;34873;49.142;9.118;2022-10-31T02:47:32;1.90;;;1.70;;
49061;SDS011;34873;49.142;9.118;2022-10-31T02:50:13;3.10;;;2.13;;
49061;SDS011;34873;49.142;9.118;2022-10-31T02:52:49;2.15;;;1.65;;
49061;SDS011;34873;49.142;9.118;2022-10-31T02:57:47;1.58;;;1.48;;
49061;SDS011;34873;49.142;9.118;2022-10-31T03:00:13;1.98;;;1.40;;
49061;SDS011;34873;49.142;9.118;2022-10-31T03:08:01;2.58;;;1.70;;
49061;SDS011;34873;49.142;9.118;2022-10-31T03:10:35;2.40;;;2.10;;
49061;SDS011;34873;49.142;9.118;2022-10-31T03:13:32;4.03;;;1.85;;
49061;SDS011;34873;49.142;9.118;2022-10-31T03:18:56;4.25;;;1.98;;
49061;SDS011;34873;49.142;9.118;2022-10-31T03:24:12;3.97;;;1.70;;
49061;SDS011;34873;49.142;9.118;2022-10-31T03:26:42;2.28;;;1.70;;
49061;SDS011;34873;49.142;9.118;2022-10-31T03:29:16;2.22;;;1.55;;
49061;SDS011;34873;49.142;9.118;2022-10-31T03:34:12;2.28;;;2.03;;
49061;SDS011;34873;49.142;9.118;2022-10-31T03:36:42;3.88;;;2.33;;
49061;SDS011;34873;49.142;9.118;2022-10-31T03:39:12;2.65;;;1.60;;
49061;SDS011;34873;49.142;9.118;2022-10-31T03:41:41;1.90;;;1.42;;
49061;SDS011;34873;49.142;9.118;2022-10-31T03:44:13;2.60;;;1.85;;
49061;SDS011;34873;49.142;9.118;2022-10-31T03:46:44;3.97;;;1.65;;
49061;SDS011;34873;49.142;9.118;2022-10-31T03:49:10;1.65;;;1.55;;
49061;SDS011;34873;49.142;9.118;2022-10-31T03:54:14;5.43;;;2.80;;
49061;SDS011;34873;49.142;9.118;2022-10-31T03:56:55;4.95;;;1.83;;
49061;SDS011;34873;49.142;9.118;2022-10-31T03:59:37;4.07;;;1.85;;
49061;SDS011;34873;49.142;9.118;2022-10-31T04:02:10;1.88;;;1.27;;
49061;SDS011;34873;49.142;9.118;2022-10-31T04:04:38;1.75;;;1.60;;
49061;SDS011;34873;49.142;9.118;2022-10-31T04:07:04;2.75;;;1.70;;
49061;SDS011;34873;49.142;9.118;2022-10-31T04:09:36;3.90;;;1.58;;
49061;SDS011;34873;49.142;9.118;2022-10-31T04:12:02;1.83;;;1.67;;
49061;SDS011;34873;49.142;9.118;2022-10-31T04:14:48;2.42;;;1.90;;
49061;SDS011;34873;49.142;9.118;2022-10-31T04:17:16;2.10;;;1.73;;
49061;SDS011;34873;49.142;9.118;2022-10-31T04:19:44;2.67;;;1.92;;
49061;SDS011;34873;49.142;9.118;2022-10-31T04:22:10;3.45;;;1.88;;
49061;SDS011;34873;49.142;9.118;2022-10-31T04:24:38;1.83;;;1.60;;
49061;SDS011;34873;49.142;9.118;2022-10-31T04:27:04;3.97;;;1.45;;
49061;SDS011;34873;49.142;9.118;2022-10-31T04:29:30;2.40;;;1.60;;
49061;SDS011;34873;49.142;9.118;2022-10-31T04:31:57;2.08;;;1.65;;
49061;SDS011;34873;49.142;9.118;2022-10-31T04:34:28;2.17;;;1.40;;
49061;SDS011;34873;49.142;9.118;2022-10-31T04:36:55;2.15;;;1.88;;
49061;SDS011;34873;49.142;9.118;2022-10-31T04:39:21;2.45;;;1.80;;
49061;SDS011;34873;49.142;9.118;2022-10-31T04:41:57;3.67;;;1.90;;
49061;SDS011;34873;49.142;9.118;2022-10-31T04:44:25;1.63;;;1.52;;
49061;SDS011;34873;49.142;9.118;2022-10-31T04:46:53;2.70;;;1.88;;
49061;SDS011;34873;49.142;9.118;2022-10-31T04:49:18;4.57;;;2.22;;
49061;SDS011;34873;49.142;9.118;2022-10-31T04:51:43;1.50;;;1.40;;
49061;SDS011;34873;49.142;9.118;2022-10-31T04:54:09;3.22;;;1.55;;
49061;SDS011;34873;49.142;9.118;2022-10-31T04:56:43;2.00;;;1.60;;
49061;SDS011;34873;49.142;9.118;2022-10-31T04:59:14;1.88;;;1.77;;
49061;SDS011;34873;49.142;9.118;2022-10-31T05:01:47;2.08;;;1.55;;
49061;SDS011;34873;49.142;9.118;2022-10-31T05:04:19;2.38;;;1.48;;
49061;SDS011;34873;49.142;9.118;2022-10-31T05:06:45;1.65;;;1.52;;
49061;SDS011;34873;49.142;9.118;2022-10-31T05:09:13;3.55;;;1.85;;
49061;SDS011;34873;49.142;9.118;2022-10-31T05:11:41;1.25;;;1.15;;
49061;SDS011;34873;49.142;9.118;2022-10-31T05:14:35;2.35;;;1.40;;
49061;SDS011;34873;49.142;9.118;2022-10-31T05:17:18;1.90;;;1.45;;
49061;SDS011;34873;49.142;9.118;2022-10-31T05:20:23;2.45;;;1.48;;
49061;SDS011;34873;49.142;9.118;2022-10-31T05:23:08;1.83;;;1.63;;
49061;SDS011;34873;49.142;9.118;2022-10-31T05:25:34;1.48;;;1.38;;
49061;SDS011;34873;49.142;9.118;2022-10-31T05:28:02;2.10;;;1.83;;
49061;SDS011;34873;49.142;9.118;2022-10-31T05:30:33;1.63;;;1.45;;
49061;SDS011;34873;49.142;9.118;2022-10-31T05:32:59;2.40;;;1.50;;
49061;SDS011;34873;49.142;9.118;2022-10-31T05:35:39;2.63;;;1.80;;
49061;SDS011;34873;49.142;9.118;2022-10-31T05:38:28;2.45;;;1.23;;
49061;SDS011;34873;49.142;9.118;2022-10-31T05:40:57;1.48;;;1.38;;
49061;SDS011;34873;49.142;9.118;2022-10-31T05:43:25;4.00;;;1.40;;
49061;SDS011;34873;49.142;9.118;2022-10-31T05:45:54;1.98;;;1.45;;
49061;SDS011;34873;49.142;9.118;2022-10-31T05:48:41;1.83;;;1.48;;
49061;SDS011;34873;49.142;9.118;2022-10-31T05:51:25;2.83;;;1.52;;
49061;SDS011;34873;49.142;9.118;2022-10-31T05:53:51;3.47;;;1.45;;
49061;SDS011;34873;49.142;9.118;2022-10-31T05:56:19;1.70;;;1.48;;
49061;SDS011;34873;49.142;9.118;2022-10-31T05:58:49;1.38;;;1.27;;
49061;SDS011;34873;49.142;9.118;2022-10-31T06:01:19;2.25;;;1.40;;
49061;SDS011;34873;49.142;9.118;2022-10-31T06:03:47;1.75;;;1.50;;
49061;SDS011;34873;49.142;9.118;2022-10-31T06:06:15;2.40;;;1.63;;
49061;SDS011;34873;49.142;9.118;2022-10-31T06:08:40;2.10;;;1.50;;
49061;SDS011;34873;49.142;9.118;2022-10-31T06:11:14;1.98;;;1.63;;
49061;SDS011;34873;49.142;9.118;2022-10-31T06:14:20;2.38;;;1.60;;
49061;SDS011;34873;49.142;9.118;2022-10-31T06:16:51;1.70;;;1.47;;
49061;SDS011;34873;49.142;9.118;2022-10-31T06:19:35;2.50;;;1.60;;
49061;SDS011;34873;49.142;9.118;2022-10-31T06:22:00;2.00;;;1.38;;
49061;SDS011;34873;49.142;9.118;2022-10-31T06:24:28;1.75;;;1.65;;
49061;SDS011;34873;49.142;9.118;2022-10-31T06:26:53;2.08;;;1.70;;
49061;SDS011;34873;49.142;9.118;2022-10-31T06:29:20;2.58;;;1.50;;
49061;SDS011;34873;49.142;9.118;2022-10-31T06:32:01;2.83;;;2.03;;
49061;SDS011;34873;49.142;9.118;2022-10-31T06:34:31;2.10;;;1.50;;
49061;SDS011;34873;49.142;9.118;2022-10-31T06:36:56;2.88;;;1.40;;
49061;SDS011;34873;49.142;9.118;2022-10-31T06:39:24;2.35;;;1.88;;
49061;SDS011;34873;49.142;9.118;2022-10-31T06:41:49;1.63;;;1.30;;
49061;SDS011;34873;49.142;9.118;2022-10-31T06:44:19;1.60;;;1.50;;
49061;SDS011;34873;49.142;9.118;2022-10-31T06:46:53;2.15;;;1.67;;
49061;SDS011;34873;49.142;9.118;2022-10-31T06:49:39;1.85;;;1.60;;
49061;SDS011;34873;49.142;9.118;2022-10-31T06:52:10;3.78;;;1.40;;
49061;SDS011;34873;49.142;9.118;2022-10-31T06:54:38;1.90;;;1.55;;
49061;SDS011;34873;49.142;9.118;2022-10-31T06:57:03;1.70;;;1.55;;
49061;SDS011;34873;49.142;9.118;2022-10-31T06:59:30;1.63;;;1.42;;
49061;SDS011;34873;49.142;9.118;2022-10-31T07:02:18;1.58;;;1.48;;
49061;SDS011;34873;49.142;9.118;2022-10-31T07:04:47;1.80;;;1.42;;
49061;SDS011;34873;49.142;9.118;2022-10-31T07:07:14;2.25;;;1.38;;
49061;SDS011;34873;49.142;9.118;2022-10-31T07:09:39;1.52;;;1.42;;
49061;SDS011;34873;49.142;9.118;2022-10-31T07:12:09;1.63;;;1.52;;
49061;SDS011;34873;49.142;9.118;2022-10-31T07:14:38;3.30;;;1.65;;
49061;SDS011;34873;49.142;9.118;2022-10-31T07:17:04;5.45;;;1.67;;
49061;SDS011;34873;49.142;9.118;2022-10-31T07:19:33;6.45;;;1.33;;
49061;SDS011;34873;49.142;9.118;2022-10-31T07:22:01;3.92;;;1.55;;
49061;SDS011;34873;49.142;9.118;2022-10-31T07:24:28;1.77;;;1.50;;
49061;SDS011;34873;49.142;9.118;2022-10-31T07:26:55;2.38;;;1.70;;
49061;SDS011;34873;49.142;9.118;2022-10-31T07:29:23;5.63;;;1.40;;
49061;SDS011;34873;49.142;9.118;2022-10-31T07:31:49;1.95;;;1.65;;
49061;SDS011;34873;49.142;9.118;2022-10-31T07:34:23;4.03;;;1.75;;
49061;SDS011;34873;49.142;9.118;2022-10-31T07:37:27;3.30;;;1.60;;
49061;SDS011;34873;49.142;9.118;2022-10-31T07:39:54;2.03;;;1.40;;
49061;SDS011;34873;49.142;9.118;2022-10-31T07:42:19;4.07;;;1.50;;
49061;SDS011;34873;49.142;9.118;2022-10-31T07:44:45;9.95;;;3.83;;
49061;SDS011;34873;49.142;9.118;2022-10-31T07:47:37;7.85;;;3.30;;
49061;SDS011;34873;49.142;9.118;2022-10-31T07:50:27;12.90;;;3.95;;
49061;SDS011;34873;49.142;9.118;2022-10-31T07:53:25;11.00;;;4.03;;
49061;SDS011;34873;49.142;9.118;2022-10-31T07:56:13;8.55;;;3.80;;
49061;SDS011;34873;49.142;9.118;2022-10-31T07:58:39;11.05;;;4.70;;
49061;SDS011;34873;49.142;9.118;2022-10-31T08:01:07;16.35;;;4.53;;
49061;SDS011;34873;49.142;9.118;2022-10-31T08:03:47;7.72;;;4.57;;
49061;SDS011;34873;49.142;9.118;2022-10-31T08:06:33;15.43;;;5.10;;
49061;SDS011;34873;49.142;9.118;2022-10-31T08:09:12;10.38;;;4.30;;
49061;SDS011;34873;49.142;9.118;2022-10-31T08:11:38;15.57;;;4.43;;
49061;SDS011;34873;49.142;9.118;2022-10-31T08:14:06;13.18;;;4.32;;
49061;SDS011;34873;49.142;9.118;2022-10-31T08:16:32;11.80;;;3.63;;
49061;SDS011;34873;49.142;9.118;2022-10-31T08:19:02;13.05;;;4.32;;
49061;SDS011;34873;49.142;9.118;2022-10-31T08:21:31;12.63;;;4.10;;
49061;SDS011;34873;49.142;9.118;2022-10-31T08:23:57;10.32;;;4.00;;
49061;SDS011;34873;49.142;9.118;2022-10-31T08:26:26;13.52;;;3.83;;
49061;SDS011;34873;49.142;9.118;2022-10-31T08:28:55;9.45;;;3.97;;
49061;SDS011;34873;49.142;9.118;2022-10-31T08:31:21;13.27;;;4.15;;
49061;SDS011;34873;49.142;9.118;2022-10-31T08:33:48;13.55;;;4.20;;
49061;SDS011;34873;49.142;9.118;2022-10-31T08:36:31;12.30;;;4.25;;
49061;SDS011;34873;49.142;9.118;2022-10-31T08:39:28;8.88;;;3.90;;
49061;SDS011;34873;49.142;9.118;2022-10-31T08:41:54;8.82;;;3.72;;
49061;SDS011;34873;49.142;9.118;2022-10-31T08:44:22;8.95;;;4.03;;
49061;SDS011;34873;49.142;9.118;2022-10-31T08:46:51;9.90;;;3.70;;
49061;SDS011;34873;49.142;9.118;2022-10-31T08:49:23;9.63;;;3.47;;
49061;SDS011;34873;49.142;9.118;2022-10-31T08:51:49;13.25;;;3.83;;
49061;SDS011;34873;49.142;9.118;2022-10-31T08:54:15;11.05;;;3.80;;
49061;SDS011;34873;49.142;9.118;2022-10-31T08:56:55;9.82;;;3.65;;
49061;SDS011;34873;49.142;9.118;2022-10-31T08:59:35;10.00;;;4.10;;
49061;SDS011;34873;49.142;9.118;2022-10-31T09:02:18;9.30;;;4.03;;
49061;SDS011;34873;49.142;9.118;2022-10-31T09:04:43;9.25;;;3.72;;
49061;SDS011;34873;49.142;9.118;2022-10-31T09:07:14;7.53;;;3.55;;
49061;SDS011;34873;49.142;9.118;2022-10-31T09:09:40;9.43;;;3.45;;
49061;SDS011;34873;49.142;9.118;2022-10-31T09:12:09;9.05;;;3.58;;
49061;SDS011;34873;49.142;9.118;2022-10-31T09:15:05;8.43;;;3.85;;
49061;SDS011;34873;49.142;9.118;2022-10-31T09:17:47;9.02;;;3.85;;
49061;SDS011;34873;49.142;9.118;2022-10-31T09:20:28;10.65;;;3.80;;
49061;SDS011;34873;49.142;9.118;2022-10-31T09:23:00;12.90;;;4.45;;
49061;SDS011;34873;49.142;9.118;2022-10-31T09:25:37;11.63;;;3.70;;
49061;SDS011;34873;49.142;9.118;2022-10-31T09:28:24;8.15;;;3.53;;
49061;SDS011;34873;49.142;9.118;2022-10-31T09:30:51;9.55;;;3.65;;
49061;SDS011;34873;49.142;9.118;2022-10-31T09:33:42;6.82;;;3.55;;
49061;SDS011;34873;49.142;9.118;2022-10-31T09:36:27;10.43;;;4.20;;
49061;SDS011;34873;49.142;9.118;2022-10-31T09:38:53;7.32;;;3.05;;
49061;SDS011;34873;49.142;9.118;2022-10-31T09:44:13;9.82;;;4.10;;
49061;SDS011;34873;49.142;9.118;2022-10-31T09:50:40;9.10;;;3.60;;
49061;SDS011;34873;49.142;9.118;2022-10-31T09:56:08;10.52;;;4.10;;
49061;SDS011;34873;49.142;9.118;2022-10-31T09:58:44;8.25;;;3.95;;
49061;SDS011;34873;49.142;9.118;2022-10-31T10:01:58;6.70;;;3.50;;
49061;SDS011;34873;49.142;9.118;2022-10-31T10:04:18;5.22;;;2.90;;
49061;SDS011;34873;49.142;9.118;2022-10-31T10:07:37;7.63;;;3.35;;
49061;SDS011;34873;49.142;9.118;2022-10-31T10:10:50;7.97;;;3.50;;
49061;SDS011;34873;49.142;9.118;2022-10-31T10:26:56;7.63;;;3.25;;
49061;SDS011;34873;49.142;9.118;2022-10-31T10:29:34;9.60;;;3.55;;
49061;SDS011;34873;49.142;9.118;2022-10-31T10:32:29;6.18;;;3.40;;
49061;SDS011;34873;49.142;9.118;2022-10-31T10:34:55;5.93;;;3.33;;
49061;SDS011;34873;49.142;9.118;2022-10-31T10:40:18;7.38;;;2.97;;
49061;SDS011;34873;49.142;9.118;2022-10-31T10:42:56;4.70;;;3.08;;
49061;SDS011;34873;49.142;9.118;2022-10-31T10:45:43;6.93;;;3.55;;
49061;SDS011;34873;49.142;9.118;2022-10-31T10:51:21;8.18;;;3.35;;
49061;SDS011;34873;49.142;9.118;2022-10-31T10:56:45;5.15;;;3.20;;
49061;SDS011;34873;49.142;9.118;2022-10-31T10:59:24;7.00;;;3.10;;
49061;SDS011;34873;49.142;9.118;2022-10-31T11:01:52;9.45;;;3.25;;
49061;SDS011;34873;49.142;9.118;2022-10-31T11:04:35;4.88;;;2.85;;
49061;SDS011;34873;49.142;9.118;2022-10-31T11:07:06;6.65;;;2.92;;
49061;SDS011;34873;49.142;9.118;2022-10-31T11:09:35;7.35;;;3.47;;
49061;SDS011;34873;49.142;9.118;2022-10-31T11:12:15;6.70;;;3.10;;
49061;SDS011;34873;49.142;9.118;2022-10-31T11:14:44;5.32;;;3.08;;
49061;SDS011;34873;49.142;9.118;2022-10-31T11:17:27;5.90;;;2.92;;
49061;SDS011;34873;49.142;9.118;2022-10-31T11:20:03;5.65;;;3.25;;
49061;SDS011;34873;49.142;9.118;2022-10-31T11:22:29;4.07;;;2.70;;
49061;SDS011;34873;49.142;9.118;2022-10-31T11:25:00;8.10;;;3.40;;
49061;SDS011;34873;49.142;9.118;2022-10-31T11:27:27;4.20;;;2.38;;
49061;SDS011;34873;49.142;9.118;2022-10-31T11:29:59;7.68;;;3.10;;
49061;SDS011;34873;49.142;9.118;2022-10-31T11:32:29;5.97;;;3.20;;
49061;SDS011;34873;49.142;9.118;2022-10-31T11:34:56;6.82;;;2.67;;
49061;SDS011;34873;49.142;9.118;2022-10-31T11:37:25;6.10;;;3.00;;
49061;SDS011;34873;49.142;9.118;2022-10-31T11:39:55;3.88;;;2.72;;
49061;SDS011;34873;49.142;9.118;2022-10-31T11:42:24;5.07;;;2.75;;
49061;SDS011;34873;49.142;9.118;2022-10-31T11:44:51;5.38;;;2.80;;
49061;SDS011;34873;49.142;9.118;2022-10-31T11:47:20;5.75;;;2.88;;
49061;SDS011;34873;49.142;9.118;2022-10-31T11:49:54;6.00;;;3.33;;
49061;SDS011;34873;49.142;9.118;2022-10-31T11:52:26;3.83;;;2.40;;
49061;SDS011;34873;49.142;9.118;2022-10-31T11:57:29;6.60;;;2.83;;
49061;SDS011;34873;49.142;9.118;2022-10-31T11:59:57;5.43;;;3.25;;
49061;SDS011;34873;49.142;9.118;2022-10-31T12:02:37;5.65;;;2.58;;
49061;SDS011;34873;49.142;9.118;2022-10-31T12:05:06;6.20;;;3.10;;
49061;SDS011;34873;49.142;9.118;2022-10-31T12:07:33;4.15;;;2.83;;
49061;SDS011;34873;49.142;9.118;2022-10-31T12:10:01;6.82;;;3.28;;
49061;SDS011;34873;49.142;9.118;2022-10-31T12:12:37;8.05;;;3.08;;
49061;SDS011;34873;49.142;9.118;2022-10-31T12:18:04;7.30;;;3.42;;
49061;SDS011;34873;49.142;9.118;2022-10-31T12:28:54;7.53;;;3.38;;
49061;SDS011;34873;49.142;9.118;2022-10-31T12:39:59;8.30;;;3.55;;
49061;SDS011;34873;49.142;9.118;2022-10-31T12:53:19;6.25;;;2.80;;
49061;SDS011;34873;49.142;9.118;2022-10-31T12:56:14;7.15;;;3.03;;
49061;SDS011;34873;49.142;9.118;2022-10-31T12:58:47;8.15;;;2.85;;
49061;SDS011;34873;49.142;9.118;2022-10-31T13:01:35;7.15;;;3.15;;
49061;SDS011;34873;49.142;9.118;2022-10-31T13:04:53;8.73;;;3.20;;
49061;SDS011;34873;49.142;9.118;2022-10-31T13:12:23;5.60;;;2.90;;
49061;SDS011;34873;49.142;9.118;2022-10-31T13:14:57;5.88;;;2.83;;
49061;SDS011;34873;49.142;9.118;2022-10-31T13:19:55;5.55;;;2.70;;
49061;SDS011;34873;49.142;9.118;2022-10-31T13:22:29;5.03;;;2.77;;
49061;SDS011;34873;49.142;9.118;2022-10-31T13:24:58;7.30;;;3.80;;
49061;SDS011;34873;49.142;9.118;2022-10-31T13:27:26;7.00;;;2.75;;
49061;SDS011;34873;49.142;9.118;2022-10-31T13:30:02;8.07;;;2.63;;
49061;SDS011;34873;49.142;9.118;2022-10-31T13:32:36;5.35;;;2.65;;
49061;SDS011;34873;49.142;9.118;2022-10-31T13:35:04;5.25;;;3.25;;
49061;SDS011;34873;49.142;9.118;2022-10-31T13:37:40;4.20;;;2.95;;
49061;SDS011;34873;49.142;9.118;2022-10-31T13:45:23;6.05;;;3.08;;
49061;SDS011;34873;49.142;9.118;2022-10-31T13:50:39;12.25;;;2.65;;
49061;SDS011;34873;49.142;9.118;2022-10-31T13:53:13;6.40;;;3.38;;
49061;SDS011;34873;49.142;9.118;2022-10-31T13:55:47;6.05;;;2.95;;
49061;SDS011;34873;49.142;9.118;2022-10-31T13:58:26;6.55;;;2.83;;
49061;SDS011;34873;49.142;9.118;2022-10-31T14:01:04;6.97;;;3.17;;
49061;SDS011;34873;49.142;9.118;2022-10-31T14:03:42;4.47;;;2.67;;
49061;SDS011;34873;49.142;9.118;2022-10-31T14:06:09;5.15;;;2.50;;
49061;SDS011;34873;49.142;9.118;2022-10-31T14:08:36;6.40;;;3.05;;
49061;SDS011;34873;49.142;9.118;2022-10-31T14:11:03;4.60;;;3.25;;
49061;SDS011;34873;49.142;9.118;2022-10-31T14:16:14;5.78;;;3.20;;
49061;SDS011;34873;49.142;9.118;2022-10-31T14:18:48;4.47;;;3.08;;
49061;SDS011;34873;49.142;9.118;2022-10-31T14:29:19;3.55;;;2.28;;
49061;SDS011;34873;49.142;9.118;2022-10-31T14:35:09;6.97;;;2.70;;
49061;SDS011;34873;49.142;9.118;2022-10-31T14:40:23;4.80;;;3.22;;
49061;SDS011;34873;49.142;9.118;2022-10-31T14:48:14;4.22;;;2.80;;
49061;SDS011;34873;49.142;9.118;2022-10-31T14:50:58;5.55;;;2.65;;
49061;SDS011;34873;49.142;9.118;2022-10-31T14:53:26;3.30;;;2.90;;
49061;SDS011;34873;49.142;9.118;2022-10-31T14:55:55;6.35;;;3.00;;
49061;SDS011;34873;49.142;9.118;2022-10-31T14:58:26;4.47;;;2.80;;
49061;SDS011;34873;49.142;9.118;2022-10-31T15:00:57;6.97;;;2.75;;
49061;SDS011;34873;49.142;9.118;2022-10-31T15:03:30;3.50;;;2.47;;
49061;SDS011;34873;49.142;9.118;2022-10-31T15:05:59;9.15;;;2.80;;
49061;SDS011;34873;49.142;9.118;2022-10-31T15:11:11;7.03;;;2.75;;
49061;SDS011;34873;49.142;9.118;2022-10-31T15:13:51;23.05;;;12.70;;
49061;SDS011;34873;49.142;9.118;2022-10-31T15:16:23;17.75;;;10.35;;
49061;SDS011;34873;49.142;9.118;2022-10-31T15:18:56;13.48;;;7.78;;
49061;SDS011;34873;49.142;9.118;2022-10-31T15:21:24;10.10;;;7.03;;
49061;SDS011;34873;49.142;9.118;2022-10-31T15:23:51;11.63;;;6.95;;
49061;SDS011;34873;49.142;9.118;2022-10-31T15:26:19;12.18;;;6.93;;
49061;SDS011;34873;49.142;9.118;2022-10-31T15:28:46;11.38;;;6.80;;
49061;SDS011;34873;49.142;9.118;2022-10-31T15:31:14;11.57;;;6.78;;
49061;SDS011;34873;49.142;9.118;2022-10-31T15:33:41;13.15;;;6.97;;
49061;SDS011;34873;49.142;9.118;2022-10-31T15:36:21;12.35;;;6.55;;
49061;SDS011;34873;49.142;9.118;2022-10-31T15:38:48;17.13;;;7.18;;
49061;SDS011;34873;49.142;9.118;2022-10-31T15:44:04;12.45;;;6.63;;
49061;SDS011;34873;49.142;9.118;2022-10-31T15:46:40;10.07;;;6.28;;
49061;SDS011;34873;49.142;9.118;2022-10-31T15:49:10;10.98;;;6.60;;
49061;SDS011;34873;49.142;9.118;2022-10-31T15:51:51;11.35;;;6.93;;
49061;SDS011;34873;49.142;9.118;2022-10-31T15:54:17;11.20;;;6.80;;
49061;SDS011;34873;49.142;9.118;2022-10-31T15:56:44;10.93;;;5.90;;
49061;SDS011;34873;49.142;9.118;2022-10-31T15:59:11;12.48;;;7.18;;
49061;SDS011;34873;49.142;9.118;2022-10-31T16:01:55;11.05;;;6.40;;
49061;SDS011;34873;49.142;9.118;2022-10-31T16:04:24;11.00;;;6.80;;
49061;SDS011;34873;49.142;9.118;2022-10-31T16:09:56;11.35;;;6.15;;
49061;SDS011;34873;49.142;9.118;2022-10-31T16:12:25;10.02;;;6.00;;
49061;SDS011;34873;49.142;9.118;2022-10-31T16:14:54;12.05;;;6.35;;
49061;SDS011;34873;49.142;9.118;2022-10-31T16:17:21;11.00;;;6.13;;
49061;SDS011;34873;49.142;9.118;2022-10-31T16:22:30;12.43;;;6.20;;
49061;SDS011;34873;49.142;9.118;2022-10-31T16:25:08;10.25;;;5.38;;
49061;SDS011;34873;49.142;9.118;2022-10-31T16:27:35;10.30;;;5.88;;
49061;SDS011;34873;49.142;9.118;2022-10-31T16:30:03;12.88;;;6.63;;
49061;SDS011;34873;49.142;9.118;2022-10-31T16:33:20;12.10;;;6.57;;
49061;SDS011;34873;49.142;9.118;2022-10-31T16:35:52;13.18;;;6.47;;
49061;SDS011;34873;49.142;9.118;2022-10-31T16:38:19;7.82;;;5.47;;
49061;SDS011;34873;49.142;9.118;2022-10-31T16:40:45;12.85;;;6.10;;
49061;SDS011;34873;49.142;9.118;2022-10-31T16:43:11;7.35;;;4.63;;
49061;SDS011;34873;49.142;9.118;2022-10-31T16:45:44;10.32;;;5.97;;
49061;SDS011;34873;49.142;9.118;2022-10-31T16:48:15;11.90;;;6.75;;
49061;SDS011;34873;49.142;9.118;2022-10-31T16:53:11;12.05;;;5.90;;
49061;SDS011;34873;49.142;9.118;2022-10-31T16:55:46;8.40;;;5.55;;
49061;SDS011;34873;49.142;9.118;2022-10-31T16:58:16;8.20;;;5.53;;
49061;SDS011;34873;49.142;9.118;2022-10-31T17:00:44;8.88;;;5.47;;
49061;SDS011;34873;49.142;9.118;2022-10-31T17:03:12;10.38;;;5.70;;
49061;SDS011;34873;49.142;9.118;2022-10-31T17:05:37;8.13;;;5.43;;
49061;SDS011;34873;49.142;9.118;2022-10-31T17:08:03;7.78;;;5.10;;
49061;SDS011;34873;49.142;9.118;2022-10-31T17:10:29;8.60;;;5.28;;
49061;SDS011;34873;49.142;9.118;2022-10-31T17:12:57;15.55;;;6.10;;
49061;SDS011;34873;49.142;9.118;2022-10-31T17:15:24;15.68;;;7.00;;
49061;SDS011;34873;49.142;9.118;2022-10-31T17:17:51;11.55;;;6.65;;
49061;SDS011;34873;49.142;9.118;2022-10-31T17:20:22;13.13;;;6.43;;
49061;SDS011;34873;49.142;9.118;2022-10-31T17:22:49;9.57;;;6.13;;
49061;SDS011;34873;49.142;9.118;2022-10-31T17:25:15;10.65;;;5.68;;
49061;SDS011;34873;49.142;9.118;2022-10-31T17:27:43;12.15;;;6.25;;
49061;SDS011;34873;49.142;9.118;2022-10-31T17:30:11;10.13;;;5.85;;
49061;SDS011;34873;49.142;9.118;2022-10-31T17:32:38;9.80;;;6.15;;
49061;SDS011;34873;49.142;9.118;2022-10-31T17:35:04;11.60;;;5.97;;
49061;SDS011;34873;49.142;9.118;2022-10-31T17:37:30;10.15;;;6.05;;
49061;SDS011;34873;49.142;9.118;2022-10-31T17:39:55;8.57;;;5.43;;
49061;SDS011;34873;49.142;9.118;2022-10-31T17:42:20;8.60;;;5.72;;
49061;SDS011;34873;49.142;9.118;2022-10-31T17:44:51;15.32;;;6.35;;
49061;SDS011;34873;49.142;9.118;2022-10-31T17:47:16;8.15;;;5.22;;
49061;SDS011;34873;49.142;9.118;2022-10-31T17:49:44;17.05;;;5.70;;
49061;SDS011;34873;49.142;9.118;2022-10-31T17:52:14;10.07;;;5.43;;
49061;SDS011;34873;49.142;9.118;2022-10-31T17:54:39;9.73;;;5.95;;
49061;SDS011;34873;49.142;9.118;2022-10-31T17:57:07;10.82;;;5.40;;